createdAt,value
2018-03-24T00:00:48.042Z,93422.20
2018-03-24T00:03:14.379Z,93421.20
2018-03-24T00:05:40.714Z,93418.02
2018-03-24T00:08:07.065Z,93413.35
2018-03-24T00:10:33.408Z,93406.70
2018-03-24T00:12:59.790Z,93413.23
2018-03-24T00:15:26.113Z,93417.83
2018-03-24T00:17:52.486Z,93406.39
2018-03-24T00:20:18.906Z,93409.98
2018-03-24T00:22:45.286Z,93407.20
2018-03-24T00:25:11.675Z,93409.23
2018-03-24T00:27:38.090Z,93413.67
2018-03-24T00:30:04.470Z,93414.02
2018-03-24T00:32:30.809Z,93403.89
2018-03-24T00:34:57.239Z,93403.58
2018-03-24T00:37:23.657Z,93401.70
2018-03-24T00:39:49.999Z,93408.18
2018-03-24T00:42:16.421Z,93412.21
2018-03-24T00:44:42.978Z,93400.30
2018-03-24T00:47:09.711Z,93414.31
2018-03-24T00:49:36.106Z,93411.93
2018-03-24T00:52:02.497Z,93405.96
2018-03-24T00:54:28.862Z,93422.75
2018-03-24T00:56:55.234Z,93413.59
2018-03-24T00:59:21.573Z,93420.31
2018-03-24T01:01:47.968Z,93419.84
2018-03-24T01:04:14.305Z,93409.38
2018-03-24T01:06:40.735Z,93416.16
2018-03-24T01:09:07.082Z,93418.38
2018-03-24T01:11:33.695Z,93420.47
2018-03-24T01:14:00.030Z,93417.09
2018-03-24T01:16:26.382Z,93400.66
2018-03-24T01:18:52.764Z,93414.41
2018-03-24T01:21:19.095Z,93414.91
2018-03-24T01:23:45.437Z,93421.09
2018-03-24T01:26:11.794Z,93421.09
2018-03-24T01:28:38.152Z,93411.81
2018-03-24T01:31:04.698Z,93420.47
2018-03-24T01:33:31.061Z,93417.38
2018-03-24T01:35:57.418Z,93423.53
2018-03-24T01:38:23.754Z,93416.25
2018-03-24T01:40:50.077Z,93429.81
2018-03-24T01:43:16.407Z,93433.45
2018-03-24T01:45:42.845Z,93428.12
2018-03-24T01:48:09.169Z,93430.88
2018-03-24T01:50:35.558Z,93395.59
2018-03-24T01:53:01.945Z,93432.51
2018-03-24T01:55:28.329Z,93440.26
2018-03-24T01:57:54.671Z,93445.61
2018-03-24T02:00:21.070Z,93440.13
2018-03-24T02:02:47.553Z,93445.35
2018-03-24T02:05:13.995Z,93433.78
2018-03-24T02:07:40.347Z,93439.13
2018-03-24T02:10:06.716Z,93448.98
2018-03-24T02:12:33.148Z,93448.16
2018-03-24T02:14:59.707Z,93446.36
2018-03-24T02:17:26.245Z,93440.13
2018-03-24T02:19:52.618Z,93446.13
2018-03-24T02:22:19.014Z,93438.37
2018-03-24T02:24:45.416Z,93445.44
2018-03-24T02:27:11.891Z,93443.91
2018-03-24T02:29:38.287Z,93445.25
2018-03-24T02:32:04.669Z,93419.12
2018-03-24T02:34:31.050Z,93431.71
2018-03-24T02:36:57.414Z,93441.28
2018-03-24T02:39:23.851Z,93395.89
2018-03-24T02:41:50.298Z,93424.83
2018-03-24T02:44:16.705Z,93445.06
2018-03-24T02:46:43.060Z,93440.00
2018-03-24T02:49:09.405Z,93436.41
2018-03-24T02:51:35.802Z,93421.52
2018-03-24T02:54:02.168Z,93430.63
2018-03-24T02:56:28.527Z,93430.63
2018-03-24T02:58:54.944Z,93355.50
2018-03-24T03:01:21.382Z,93430.44
2018-03-24T03:03:47.681Z,93426.67
2018-03-24T03:06:14.048Z,93397.06
2018-03-24T03:08:40.429Z,93435.09
2018-03-24T03:11:06.762Z,93439.53
2018-03-24T03:13:33.150Z,93430.97
2018-03-24T03:15:59.486Z,93441.28
2018-03-24T03:18:25.870Z,93436.99
2018-03-24T03:20:52.206Z,93442.31
2018-03-24T03:23:18.565Z,93428.89
2018-03-24T03:25:44.965Z,93441.62
2018-03-24T03:28:11.307Z,93444.86
2018-03-24T03:30:37.726Z,93449.46
2018-03-24T03:33:04.177Z,93433.48
2018-03-24T03:35:30.486Z,93454.99
2018-03-24T03:37:56.854Z,93457.41
2018-03-24T03:40:23.199Z,93461.34
2018-03-24T03:42:49.531Z,93453.58
2018-03-24T03:45:15.950Z,93455.61
2018-03-24T03:47:42.278Z,93431.36
2018-03-24T03:50:08.607Z,93448.33
2018-03-24T03:52:34.957Z,93463.44
2018-03-24T03:55:01.354Z,93461.88
2018-03-24T03:57:27.678Z,93463.83
2018-03-24T03:59:54.091Z,93473.61
2018-03-24T04:02:20.489Z,93475.89
2018-03-24T04:04:46.845Z,93474.77
2018-03-24T04:07:13.198Z,93477.86
2018-03-24T04:09:39.582Z,93459.27
2018-03-24T04:12:05.916Z,93466.39
2018-03-24T04:14:32.256Z,93482.71
2018-03-24T04:16:58.640Z,93464.23
2018-03-24T04:19:24.985Z,93489.98
2018-03-24T04:21:51.378Z,93492.89
2018-03-24T04:24:17.708Z,93475.83
2018-03-24T04:26:44.068Z,93486.69
2018-03-24T04:29:10.418Z,93497.07
2018-03-24T04:31:36.755Z,93498.82
2018-03-24T04:34:03.090Z,93467.64
2018-03-24T04:36:29.427Z,93484.95
2018-03-24T04:38:55.752Z,93502.20
2018-03-24T04:41:22.128Z,93517.44
2018-03-24T04:43:48.470Z,93516.50
2018-03-24T04:46:14.859Z,93483.40
2018-03-24T04:48:41.198Z,93521.35
2018-03-24T04:51:07.581Z,93505.85
2018-03-24T04:53:33.911Z,93504.09
2018-03-24T04:56:00.249Z,93512.84
2018-03-24T04:58:26.582Z,93521.01
2018-03-24T05:00:52.913Z,93518.58
2018-03-24T05:03:19.261Z,93513.25
2018-03-24T05:05:45.621Z,93523.44
2018-03-24T05:08:12.031Z,93506.71
2018-03-24T05:10:38.410Z,93504.10
2018-03-24T05:13:04.774Z,93536.73
2018-03-24T05:15:31.129Z,93534.42
2018-03-24T05:17:57.485Z,93550.48
2018-03-24T05:20:23.821Z,93553.92
2018-03-24T05:22:50.146Z,93540.92
2018-03-24T05:25:16.489Z,93561.19
2018-03-24T05:27:42.822Z,93561.61
2018-03-24T05:30:09.154Z,93553.52
2018-03-24T05:32:35.530Z,93554.06
2018-03-24T05:35:01.930Z,93574.81
2018-03-24T05:37:28.262Z,93572.17
2018-03-24T05:39:54.606Z,93576.03
2018-03-24T05:42:20.935Z,93572.94
2018-03-24T05:44:47.322Z,93544.27
2018-03-24T05:47:13.662Z,93575.37
2018-03-24T05:49:40.007Z,93569.08
2018-03-24T05:52:06.331Z,93577.03
2018-03-24T05:54:32.701Z,93595.17
2018-03-24T05:56:59.072Z,93592.39
2018-03-24T05:59:25.402Z,93562.45
2018-03-24T06:01:51.726Z,93598.05
2018-03-24T06:04:18.069Z,93606.17
2018-03-24T06:06:44.414Z,93591.13
2018-03-24T06:09:10.787Z,93606.77
2018-03-24T06:11:37.165Z,93612.04
2018-03-24T06:14:03.495Z,93622.28
2018-03-24T06:16:29.862Z,93627.06
2018-03-24T06:18:56.199Z,93628.90
2018-03-24T06:21:22.538Z,93613.83
2018-03-24T06:23:48.901Z,93620.03
2018-03-24T06:26:15.250Z,93634.27
2018-03-24T06:28:41.614Z,93629.30
2018-03-24T06:31:07.999Z,93636.44
2018-03-24T06:33:34.342Z,93628.35
2018-03-24T06:36:00.686Z,93638.06
2018-03-24T06:38:27.018Z,93635.03
2018-03-24T06:40:53.362Z,93625.30
2018-03-24T06:43:19.698Z,93645.88
2018-03-24T06:45:46.044Z,93648.05
2018-03-24T06:48:12.397Z,93650.81
2018-03-24T06:50:38.727Z,93627.23
2018-03-24T06:53:05.089Z,93662.55
2018-03-24T06:55:31.466Z,93654.92
2018-03-24T06:57:57.843Z,93622.23
2018-03-24T07:00:24.181Z,93663.02
2018-03-24T07:02:50.558Z,93649.98
2018-03-24T07:05:16.987Z,93660.57
2018-03-24T07:07:43.380Z,93672.06
2018-03-24T07:10:09.771Z,93675.22
2018-03-24T07:12:36.098Z,93683.51
2018-03-24T07:15:02.473Z,93684.41
2018-03-24T07:17:28.815Z,93687.09
2018-03-24T07:19:55.196Z,93696.47
2018-03-24T07:22:21.574Z,93678.31
2018-03-24T07:24:47.918Z,93682.35
2018-03-24T07:27:14.279Z,93653.40
2018-03-24T07:29:40.670Z,93694.63
2018-03-24T07:32:07.045Z,93684.25
2018-03-24T07:34:33.384Z,93701.07
2018-03-24T07:36:59.765Z,93706.20
2018-03-24T07:39:26.118Z,93716.53
2018-03-24T07:41:52.445Z,93712.68
2018-03-24T07:44:18.825Z,93718.07
2018-03-24T07:46:45.199Z,93716.82
2018-03-24T07:49:11.558Z,93714.26
2018-03-24T07:51:37.943Z,93686.46
2018-03-24T07:54:04.310Z,93724.02
2018-03-24T07:56:30.629Z,93719.87
2018-03-24T07:58:57.009Z,93729.34
2018-03-24T08:01:23.454Z,93722.03
2018-03-24T08:03:49.817Z,93732.77
2018-03-24T08:06:16.222Z,93717.05
2018-03-24T08:08:42.582Z,93730.27
2018-03-24T08:11:08.935Z,93728.26
2018-03-24T08:13:35.266Z,93728.81
2018-03-24T08:16:01.641Z,93724.42
2018-03-24T08:18:27.973Z,93723.95
2018-03-24T08:20:54.338Z,93733.13
2018-03-24T08:23:20.689Z,93728.73
2018-03-24T08:25:47.062Z,93747.66
2018-03-24T08:28:13.454Z,93740.20
2018-03-24T08:30:39.826Z,93756.69
2018-03-24T08:33:06.221Z,93749.44
2018-03-24T08:35:32.592Z,93721.80
2018-03-24T08:37:58.966Z,93766.82
2018-03-24T08:40:25.342Z,93764.26
2018-03-24T08:42:51.685Z,93754.91
2018-03-24T08:45:18.088Z,93763.97
2018-03-24T08:47:44.434Z,93742.19
2018-03-24T08:50:10.799Z,93738.75
2018-03-24T08:52:37.188Z,93779.52
2018-03-24T08:55:03.540Z,93774.74
2018-03-24T08:57:29.894Z,93769.20
2018-03-24T08:59:56.268Z,93757.47
2018-03-24T09:02:22.638Z,93786.69
2018-03-24T09:04:49.023Z,93791.92
2018-03-24T09:07:15.394Z,93799.56
2018-03-24T09:09:41.789Z,93794.58
2018-03-24T09:12:08.127Z,93790.27
2018-03-24T09:14:34.504Z,93782.55
2018-03-24T09:17:00.833Z,93779.26
2018-03-24T09:19:27.236Z,93788.63
2018-03-24T09:21:53.643Z,93770.20
2018-03-24T09:24:20.053Z,93797.34
2018-03-24T09:26:46.423Z,93800.14
2018-03-24T09:29:12.750Z,93783.86
2018-03-24T09:31:39.125Z,93748.19
2018-03-24T09:34:05.468Z,93806.55
2018-03-24T09:36:31.805Z,93799.39
2018-03-24T09:38:58.166Z,93803.58
2018-03-24T09:41:24.524Z,93802.77
2018-03-24T09:43:50.850Z,93816.31
2018-03-24T09:46:17.226Z,93809.00
2018-03-24T09:48:43.612Z,93803.31
2018-03-24T09:51:09.945Z,93800.67
2018-03-24T09:53:36.323Z,93803.44
2018-03-24T09:56:02.678Z,93812.90
2018-03-24T09:58:29.055Z,93806.61
2018-03-24T10:00:55.426Z,93811.30
2018-03-24T10:03:21.816Z,93807.86
2018-03-24T10:05:48.141Z,93812.77
2018-03-24T10:08:14.491Z,93805.17
2018-03-24T10:10:40.830Z,93808.05
2018-03-24T10:13:07.215Z,93820.58
2018-03-24T10:15:33.652Z,93820.75
2018-03-24T10:18:00.003Z,93826.12
2018-03-24T10:20:26.362Z,93792.88
2018-03-24T10:22:52.733Z,93824.48
2018-03-24T10:25:19.068Z,93818.28
2018-03-24T10:27:45.434Z,93827.74
2018-03-24T10:30:11.780Z,93816.70
2018-03-24T10:32:38.182Z,93789.76
2018-03-24T10:35:04.514Z,93832.66
2018-03-24T10:37:30.888Z,93822.18
2018-03-24T10:39:57.239Z,93809.50
2018-03-24T10:42:23.613Z,93785.20
2018-03-24T10:44:49.994Z,93829.67
2018-03-24T10:47:16.368Z,93800.02
2018-03-24T10:49:42.800Z,93820.14
2018-03-24T10:52:09.166Z,93823.39
2018-03-24T10:54:35.543Z,93825.47
2018-03-24T10:57:01.925Z,93822.72
2018-03-24T10:59:28.297Z,93825.83
2018-03-24T11:01:54.674Z,93820.95
2018-03-24T11:04:21.112Z,93826.83
2018-03-24T11:06:47.495Z,93802.92
2018-03-24T11:11:53.090Z,93824.17
2018-03-24T11:14:19.450Z,93824.99
2018-03-24T11:16:45.839Z,93824.03
2018-03-24T11:19:12.231Z,93828.83
2018-03-24T11:21:38.649Z,93827.69
2018-03-24T11:24:05.001Z,93832.41
2018-03-24T11:26:31.397Z,93826.45
2018-03-24T11:28:57.713Z,93829.84
2018-03-24T11:31:24.130Z,93833.69
2018-03-24T11:33:50.510Z,93826.39
2018-03-24T11:36:16.885Z,93800.52
2018-03-24T11:38:43.266Z,93803.81
2018-03-24T11:41:09.597Z,93841.46
2018-03-24T11:43:36.006Z,93843.23
2018-03-24T11:46:02.373Z,93830.84
2018-03-24T11:48:28.730Z,93825.52
2018-03-24T11:50:55.131Z,93833.22
2018-03-24T11:53:21.461Z,93831.39
2018-03-24T11:55:47.874Z,93830.45
2018-03-24T11:58:14.307Z,93835.78
2018-03-24T12:00:40.637Z,93838.95
2018-03-24T12:03:06.978Z,93854.55
2018-03-24T12:05:33.382Z,93857.20
2018-03-24T12:07:59.724Z,93854.69
2018-03-24T12:10:26.097Z,93863.50
2018-03-24T12:12:52.433Z,93857.33
2018-03-24T12:15:18.873Z,93865.85
2018-03-24T12:17:45.235Z,93859.49
2018-03-24T12:20:11.638Z,93860.09
2018-03-24T12:22:38.004Z,93864.22
2018-03-24T12:25:04.366Z,93840.45
2018-03-24T12:27:30.763Z,93860.98
2018-03-24T12:29:57.123Z,93846.40
2018-03-24T12:32:23.545Z,93867.22
2018-03-24T12:34:49.889Z,93873.41
2018-03-24T12:37:16.214Z,93870.66
2018-03-24T12:39:42.610Z,93855.58
2018-03-24T12:42:09.003Z,93874.38
2018-03-24T12:44:35.318Z,93866.59
2018-03-24T12:47:01.723Z,93874.44
2018-03-24T12:49:28.081Z,93867.94
2018-03-24T12:51:54.462Z,93869.30
2018-03-24T12:54:20.801Z,93873.09
2018-03-24T12:56:47.128Z,93867.27
2018-03-24T12:59:13.509Z,93855.64
2018-03-24T13:01:39.881Z,93853.56
2018-03-24T13:04:06.239Z,93854.02
2018-03-24T13:06:32.565Z,93878.56
2018-03-24T13:08:58.957Z,93875.25
2018-03-24T13:11:25.298Z,93884.98
2018-03-24T13:13:51.662Z,93860.57
2018-03-24T13:16:18.029Z,93894.98
2018-03-24T13:18:44.436Z,93895.94
2018-03-24T13:21:10.809Z,93898.70
2018-03-24T13:23:37.249Z,93893.44
